Jupiter, FL (33458)

4:37 PM EDT on September 30, 2014 (GMT -0400)
Pennock Ln. | Change Station
CLOSE
Current Station
Personal Weather Station
Location: Jupiter, FL
Elevation: 20 ft
Nearby Weather Stations

Elev 20 ft 26.94 °N, 80.11 °W | Updated 20 seconds ago

Thunderstorm
Thunderstorm
87.6 °F
Feels Like 99 °F
N
2.4
Wind Variable Wind from SSW
Gusts 4.6 mph

Today
High -- | Low -- °F
--% Chance of Precip.
Yesterday
High -- | Low -- °F
Precip. -- in
7:12 AM 7:07 PM
Waxing Crescent, 40% visible
Pressure 29.80 in
Visibility 10.0 miles
Clouds Mostly Cloudy 2700 ft
Mostly Cloudy 4500 ft
Mostly Cloudy 25000 ft
Heat Index 99 °F
Dew Point 77 °F
Humidity 70%
Rainfall 0.00 in
Snow Depth Not available.
UV 1.5 out of 12
Pollen 3.90 out of 12
Ozone Good
PM2.5 Good
Flu Activity Not available.
METAR KPBI 301953Z 25012KT 10SM BKN027CB BKN045 BKN250 31/24 A2980 RMK CB NW MOV E TCU NE CB DSNT ALQDS

More Conditions Fewer Conditions

Pressure 29.80 in
Visibility 10.0 miles
Clouds Mostly Cloudy 2700 ft
Mostly Cloudy 4500 ft
Mostly Cloudy 25000 ft
Heat Index 99 °F
Dew Point 77 °F
Humidity 70%
Rainfall 0.00 in
Snow Depth Not available.
UV 1.5 out of 12
Pollen 3.90 out of 12
Ozone Good
PM2.5 Good
Flu Activity Not available.
METAR KPBI 301953Z 25012KT 10SM BKN027CB BKN045 BKN250 31/24 A2980 RMK CB NW MOV E TCU NE CB DSNT ALQDS

More Conditions Fewer Conditions

Nowcast | as of 4:27 PM EDT on September 30, 2014

Isolated showers and thunderstorms continue to push to the east across the area. Most of the activity is across the interior with the main threats being brief heavy downpours and occasional lightning.

×

10-Day Weather Forecast

Almanac

Astronomy

Sep. 30, 2014 Rise Set
Actual Time 7:12 AM EDT 7:07 PM EDT
Civil Twilight 6:49 AM EDT 7:31 PM EDT
Nautical Twilight 6:22 AM EDT 7:57 PM EDT
Astronomical Twilight 5:55 AM EDT 8:24 PM EDT
Moon 12:55 PM EDT No Moon Set
Length of Visible Light 12h 41m
Length of Day
11h 55m
Tomorrow will be 1m 34s shorter.
Waxing Crescent, 40% of the Moon is Illuminated
Today
Waxing Crescent
Oct 1
First Quarter
Oct 8
Full
Oct 15
Last Quarter
Oct 23
New

Today's Extremes

State Highs State Lows

Community

WunderPhotos

Upload Photos

1,757,743 photos uploaded!

Nearby

Air Quality

  Air Quality AQ Index Pollutant
Yesterday Good
OZONE
Yesterday Good
PM2.5
Current Good
PM2.5
Current Good
OZONE
Tuesday Good
OZONE
Tuesday Good
PM2.5
Wednesday Good
OZONE
Wednesday Good
PM2.5
Thursday Good
OZONE
Thursday Good
PM2.5

Snow Depth

Station Depth Elevation
No new snow has been reported.

Earthquake Activity

City Distance Mag. Time & Date
No recent earthquake activity has been reported nearby.
Minimum magnitude displayed is 2.5.

Coastal Water Temperatures

Place Temperature
Lake Worth, FL 84.9 °F
Virginia Key, FL 84.9 °F

Nearby Weather Stations